sensor_id;sensor_type;location;lat;lon;timestamp;pressure;altitude;pressure_sealevel;temperature;humidity
59873;BME280;50750;51.636;4.948;2023-05-21T00:01:03;102038.86;;;20.15;58.89
59873;BME280;50750;51.636;4.948;2023-05-21T00:03:38;102043.66;;;20.15;59.03
59873;BME280;50750;51.636;4.948;2023-05-21T00:06:07;102041.02;;;20.14;59.01
59873;BME280;50750;51.636;4.948;2023-05-21T00:08:33;102037.50;;;20.14;58.86
59873;BME280;50750;51.636;4.948;2023-05-21T00:11:00;102036.80;;;20.13;58.89
59873;BME280;50750;51.636;4.948;2023-05-21T00:13:26;102035.21;;;20.14;58.96
59873;BME280;50750;51.636;4.948;2023-05-21T00:15:53;102030.09;;;20.13;58.95
59873;BME280;50750;51.636;4.948;2023-05-21T00:18:19;102032.20;;;20.13;58.93
59873;BME280;50750;51.636;4.948;2023-05-21T00:20:47;102032.41;;;20.13;59.03
59873;BME280;50750;51.636;4.948;2023-05-21T00:23:13;102028.69;;;20.13;58.92
59873;BME280;50750;51.636;4.948;2023-05-21T00:25:44;102026.58;;;20.12;58.83
59873;BME280;50750;51.636;4.948;2023-05-21T00:28:11;102025.14;;;20.12;58.92
59873;BME280;50750;51.636;4.948;2023-05-21T00:30:38;102026.58;;;20.12;58.93
59873;BME280;50750;51.636;4.948;2023-05-21T00:33:05;102026.27;;;20.11;58.79
59873;BME280;50750;51.636;4.948;2023-05-21T00:35:32;102025.54;;;20.11;58.92
59873;BME280;50750;51.636;4.948;2023-05-21T00:37:59;102023.42;;;20.11;58.99
59873;BME280;50750;51.636;4.948;2023-05-21T00:40:25;102023.09;;;20.11;59.05
59873;BME280;50750;51.636;4.948;2023-05-21T00:42:55;102020.42;;;20.11;59.02
59873;BME280;50750;51.636;4.948;2023-05-21T00:45:22;102017.42;;;20.10;59.04
59873;BME280;50750;51.636;4.948;2023-05-21T00:47:53;102017.45;;;20.10;58.73
59873;BME280;50750;51.636;4.948;2023-05-21T00:50:21;102024.05;;;20.09;58.95
59873;BME280;50750;51.636;4.948;2023-05-21T00:52:48;102025.50;;;20.08;58.81
59873;BME280;50750;51.636;4.948;2023-05-21T00:55:15;102027.27;;;20.08;58.88
59873;BME280;50750;51.636;4.948;2023-05-21T00:57:41;102025.65;;;20.09;58.97
59873;BME280;50750;51.636;4.948;2023-05-21T01:00:08;102017.36;;;20.07;58.99
59873;BME280;50750;51.636;4.948;2023-05-21T01:02:36;102015.21;;;20.08;58.80
59873;BME280;50750;51.636;4.948;2023-05-21T01:05:04;102015.42;;;20.07;59.03
59873;BME280;50750;51.636;4.948;2023-05-21T01:07:35;102016.14;;;20.07;58.86
59873;BME280;50750;51.636;4.948;2023-05-21T01:10:05;102016.52;;;20.06;58.94
59873;BME280;50750;51.636;4.948;2023-05-21T01:15:07;102013.00;;;20.05;58.94
59873;BME280;50750;51.636;4.948;2023-05-21T01:17:34;102014.42;;;20.06;58.93
59873;BME280;50750;51.636;4.948;2023-05-21T01:20:01;102009.65;;;20.05;58.95
59873;BME280;50750;51.636;4.948;2023-05-21T01:22:36;102009.13;;;20.05;58.93
59873;BME280;50750;51.636;4.948;2023-05-21T01:25:07;102010.58;;;20.05;58.98
59873;BME280;50750;51.636;4.948;2023-05-21T01:27:34;102009.67;;;20.05;58.98
59873;BME280;50750;51.636;4.948;2023-05-21T01:30:00;102007.03;;;20.05;58.92
59873;BME280;50750;51.636;4.948;2023-05-21T01:32:34;102005.27;;;20.05;59.02
59873;BME280;50750;51.636;4.948;2023-05-21T01:35:09;102005.63;;;20.04;59.11
59873;BME280;50750;51.636;4.948;2023-05-21T01:40:17;102003.17;;;20.03;58.92
59873;BME280;50750;51.636;4.948;2023-05-21T01:42:46;102000.18;;;20.03;58.98
59873;BME280;50750;51.636;4.948;2023-05-21T01:45:14;101999.81;;;20.03;58.93
59873;BME280;50750;51.636;4.948;2023-05-21T01:47:44;102001.27;;;20.02;58.94
59873;BME280;50750;51.636;4.948;2023-05-21T01:50:13;101994.14;;;20.03;58.90
59873;BME280;50750;51.636;4.948;2023-05-21T01:52:48;101990.98;;;20.02;59.00
59873;BME280;50750;51.636;4.948;2023-05-21T01:55:16;101990.30;;;20.02;58.90
59873;BME280;50750;51.636;4.948;2023-05-21T01:57:42;101986.73;;;20.02;59.05
59873;BME280;50750;51.636;4.948;2023-05-21T02:00:10;101991.75;;;20.01;58.98
59873;BME280;50750;51.636;4.948;2023-05-21T02:02:37;101992.98;;;20.01;58.86
59873;BME280;50750;51.636;4.948;2023-05-21T02:05:06;101996.19;;;20.01;58.99
59873;BME280;50750;51.636;4.948;2023-05-21T02:07:33;102001.73;;;20.00;59.01
59873;BME280;50750;51.636;4.948;2023-05-21T02:10:00;101999.77;;;20.00;58.92
59873;BME280;50750;51.636;4.948;2023-05-21T02:12:26;101999.30;;;19.99;58.95
59873;BME280;50750;51.636;4.948;2023-05-21T02:14:53;101995.41;;;19.99;59.08
59873;BME280;50750;51.636;4.948;2023-05-21T02:17:21;101993.99;;;19.99;59.00
59873;BME280;50750;51.636;4.948;2023-05-21T02:19:49;101992.75;;;19.99;59.00
59873;BME280;50750;51.636;4.948;2023-05-21T02:22:16;101991.35;;;19.98;59.04
59873;BME280;50750;51.636;4.948;2023-05-21T02:24:42;101993.30;;;19.98;59.03
59873;BME280;50750;51.636;4.948;2023-05-21T02:27:09;101990.84;;;19.98;59.05
59873;BME280;50750;51.636;4.948;2023-05-21T02:29:35;101989.95;;;19.98;59.05
59873;BME280;50750;51.636;4.948;2023-05-21T02:32:02;101987.48;;;19.98;58.97
59873;BME280;50750;51.636;4.948;2023-05-21T02:34:29;101985.89;;;19.97;59.01
59873;BME280;50750;51.636;4.948;2023-05-21T02:37:04;101986.84;;;19.96;59.01
59873;BME280;50750;51.636;4.948;2023-05-21T02:39:31;101990.56;;;19.97;59.14
59873;BME280;50750;51.636;4.948;2023-05-21T02:41:58;101991.48;;;19.96;58.94
59873;BME280;50750;51.636;4.948;2023-05-21T02:44:24;101990.95;;;19.96;58.96
59873;BME280;50750;51.636;4.948;2023-05-21T02:46:51;101989.36;;;19.96;59.08
59873;BME280;50750;51.636;4.948;2023-05-21T02:49:17;101986.88;;;19.95;59.12
59873;BME280;50750;51.636;4.948;2023-05-21T02:51:44;101985.66;;;19.95;59.14
59873;BME280;50750;51.636;4.948;2023-05-21T02:54:10;101985.86;;;19.94;58.98
59873;BME280;50750;51.636;4.948;2023-05-21T02:56:37;101985.71;;;19.94;59.11
59873;BME280;50750;51.636;4.948;2023-05-21T02:59:03;101988.36;;;19.94;59.07
59873;BME280;50750;51.636;4.948;2023-05-21T03:01:30;101989.63;;;19.94;59.17
59873;BME280;50750;51.636;4.948;2023-05-21T03:03:56;101987.33;;;19.94;59.09
59873;BME280;50750;51.636;4.948;2023-05-21T03:06:23;101978.13;;;19.93;59.06
59873;BME280;50750;51.636;4.948;2023-05-21T03:08:49;101981.31;;;19.93;59.11
59873;BME280;50750;51.636;4.948;2023-05-21T03:11:17;101979.36;;;19.93;59.07
59873;BME280;50750;51.636;4.948;2023-05-21T03:13:44;101981.70;;;19.92;59.11
59873;BME280;50750;51.636;4.948;2023-05-21T03:16:11;101978.87;;;19.93;59.06
59873;BME280;50750;51.636;4.948;2023-05-21T03:18:37;101978.87;;;19.92;59.09
59873;BME280;50750;51.636;4.948;2023-05-21T03:21:04;101976.60;;;19.92;59.20
59873;BME280;50750;51.636;4.948;2023-05-21T03:23:30;101976.77;;;19.92;58.98
59873;BME280;50750;51.636;4.948;2023-05-21T03:25:57;101973.59;;;19.91;59.12
59873;BME280;50750;51.636;4.948;2023-05-21T03:28:23;101970.59;;;19.91;59.19
59873;BME280;50750;51.636;4.948;2023-05-21T03:30:50;101972.55;;;19.91;59.35
59873;BME280;50750;51.636;4.948;2023-05-21T03:33:17;101972.56;;;19.90;59.15
59873;BME280;50750;51.636;4.948;2023-05-21T03:35:43;101969.05;;;19.90;59.22
59873;BME280;50750;51.636;4.948;2023-05-21T03:38:10;101967.81;;;19.90;59.34
59873;BME280;50750;51.636;4.948;2023-05-21T03:40:36;101963.92;;;19.89;59.35
59873;BME280;50750;51.636;4.948;2023-05-21T03:43:03;101963.59;;;19.89;59.08
59873;BME280;50750;51.636;4.948;2023-05-21T03:45:29;101969.14;;;19.88;59.25
59873;BME280;50750;51.636;4.948;2023-05-21T03:47:56;101971.80;;;19.88;59.19
59873;BME280;50750;51.636;4.948;2023-05-21T03:50:23;101975.01;;;19.88;59.05
59873;BME280;50750;51.636;4.948;2023-05-21T03:52:49;101974.48;;;19.88;59.16
59873;BME280;50750;51.636;4.948;2023-05-21T03:55:15;101978.03;;;19.88;59.05
59873;BME280;50750;51.636;4.948;2023-05-21T03:57:42;101971.30;;;19.87;59.22
59873;BME280;50750;51.636;4.948;2023-05-21T04:00:09;101970.63;;;19.87;59.22
59873;BME280;50750;51.636;4.948;2023-05-21T04:02:36;101972.41;;;19.86;59.18
59873;BME280;50750;51.636;4.948;2023-05-21T04:05:02;101975.65;;;19.86;59.24
59873;BME280;50750;51.636;4.948;2023-05-21T04:07:29;101973.36;;;19.85;59.31
59873;BME280;50750;51.636;4.948;2023-05-21T04:09:56;101970.16;;;19.85;59.27
59873;BME280;50750;51.636;4.948;2023-05-21T04:12:22;101967.69;;;19.85;59.26
59873;BME280;50750;51.636;4.948;2023-05-21T04:14:49;101972.14;;;19.85;59.24
59873;BME280;50750;51.636;4.948;2023-05-21T04:17:16;101971.63;;;19.84;59.40
59873;BME280;50750;51.636;4.948;2023-05-21T04:19:44;101969.31;;;19.84;59.17
59873;BME280;50750;51.636;4.948;2023-05-21T04:22:10;101966.16;;;19.84;59.22
59873;BME280;50750;51.636;4.948;2023-05-21T04:24:37;101962.79;;;19.83;59.30
59873;BME280;50750;51.636;4.948;2023-05-21T04:27:04;101959.77;;;19.83;59.35
59873;BME280;50750;51.636;4.948;2023-05-21T04:29:31;101962.10;;;19.83;59.33
59873;BME280;50750;51.636;4.948;2023-05-21T04:31:57;101964.25;;;19.83;59.48
59873;BME280;50750;51.636;4.948;2023-05-21T04:34:24;101962.11;;;19.83;59.40
59873;BME280;50750;51.636;4.948;2023-05-21T04:36:50;101963.01;;;19.83;59.31
59873;BME280;50750;51.636;4.948;2023-05-21T04:39:19;101956.86;;;19.81;59.42
59873;BME280;50750;51.636;4.948;2023-05-21T04:41:45;101957.75;;;19.81;59.42
59873;BME280;50750;51.636;4.948;2023-05-21T04:44:12;101960.77;;;19.81;59.26
59873;BME280;50750;51.636;4.948;2023-05-21T04:46:40;101964.34;;;19.81;59.41
59873;BME280;50750;51.636;4.948;2023-05-21T04:49:06;101961.19;;;19.80;59.34
59873;BME280;50750;51.636;4.948;2023-05-21T04:51:32;101964.91;;;19.80;59.35
59873;BME280;50750;51.636;4.948;2023-05-21T04:53:59;101964.92;;;19.80;59.42
59873;BME280;50750;51.636;4.948;2023-05-21T04:56:25;101964.41;;;19.79;59.38
59873;BME280;50750;51.636;4.948;2023-05-21T04:58:52;101969.05;;;19.79;59.30
59873;BME280;50750;51.636;4.948;2023-05-21T05:01:20;101971.19;;;19.79;59.43
59873;BME280;50750;51.636;4.948;2023-05-21T05:03:52;101971.38;;;19.79;59.37
59873;BME280;50750;51.636;4.948;2023-05-21T05:06:18;101968.92;;;19.79;59.44
59873;BME280;50750;51.636;4.948;2023-05-21T05:08:45;101965.36;;;19.78;59.50
59873;BME280;50750;51.636;4.948;2023-05-21T05:11:12;101961.45;;;19.78;59.42
59873;BME280;50750;51.636;4.948;2023-05-21T05:13:39;101963.27;;;19.78;59.29
59873;BME280;50750;51.636;4.948;2023-05-21T05:16:07;101969.13;;;19.78;59.35
59873;BME280;50750;51.636;4.948;2023-05-21T05:18:34;101967.36;;;19.78;59.38
59873;BME280;50750;51.636;4.948;2023-05-21T05:21:01;101969.27;;;19.78;59.47
59873;BME280;50750;51.636;4.948;2023-05-21T05:23:28;101967.02;;;19.78;59.38
59873;BME280;50750;51.636;4.948;2023-05-21T05:25:54;101964.35;;;19.77;59.59
59873;BME280;50750;51.636;4.948;2023-05-21T05:28:21;101964.86;;;19.78;59.38
59873;BME280;50750;51.636;4.948;2023-05-21T05:30:48;101964.89;;;19.77;59.52
59873;BME280;50750;51.636;4.948;2023-05-21T05:33:14;101965.80;;;19.77;59.45
59873;BME280;50750;51.636;4.948;2023-05-21T05:35:41;101960.14;;;19.76;59.38
59873;BME280;50750;51.636;4.948;2023-05-21T05:38:07;101962.48;;;19.76;59.63
59873;BME280;50750;51.636;4.948;2023-05-21T05:40:34;101966.71;;;19.76;59.62
59873;BME280;50750;51.636;4.948;2023-05-21T05:43:00;101968.67;;;19.76;59.41
59873;BME280;50750;51.636;4.948;2023-05-21T05:45:27;101972.80;;;19.76;59.49
59873;BME280;50750;51.636;4.948;2023-05-21T05:47:54;101976.37;;;19.75;59.58
59873;BME280;50750;51.636;4.948;2023-05-21T05:50:21;101975.85;;;19.75;59.44
59873;BME280;50750;51.636;4.948;2023-05-21T05:52:47;101971.42;;;19.75;59.53
59873;BME280;50750;51.636;4.948;2023-05-21T05:55:14;101971.76;;;19.75;59.48
59873;BME280;50750;51.636;4.948;2023-05-21T05:57:40;101975.64;;;19.75;59.47
59873;BME280;50750;51.636;4.948;2023-05-21T06:00:08;101975.69;;;19.75;59.36
59873;BME280;50750;51.636;4.948;2023-05-21T06:02:38;101976.93;;;19.75;59.47
59873;BME280;50750;51.636;4.948;2023-05-21T06:05:05;101971.62;;;19.74;59.56
59873;BME280;50750;51.636;4.948;2023-05-21T06:07:39;101969.66;;;19.74;59.52
59873;BME280;50750;51.636;4.948;2023-05-21T06:10:06;101967.55;;;19.74;59.36
59873;BME280;50750;51.636;4.948;2023-05-21T06:12:33;101968.80;;;19.74;59.51
59873;BME280;50750;51.636;4.948;2023-05-21T06:15:03;101969.36;;;19.73;59.50
59873;BME280;50750;51.636;4.948;2023-05-21T06:17:30;101966.33;;;19.73;59.57
59873;BME280;50750;51.636;4.948;2023-05-21T06:19:57;101964.39;;;19.73;59.59
59873;BME280;50750;51.636;4.948;2023-05-21T06:22:24;101964.55;;;19.73;59.58
59873;BME280;50750;51.636;4.948;2023-05-21T06:24:53;101967.22;;;19.73;59.55
59873;BME280;50750;51.636;4.948;2023-05-21T06:27:20;101971.14;;;19.73;59.55
59873;BME280;50750;51.636;4.948;2023-05-21T06:29:46;101968.48;;;19.73;59.71
59873;BME280;50750;51.636;4.948;2023-05-21T06:32:13;101972.77;;;19.73;59.50
59873;BME280;50750;51.636;4.948;2023-05-21T06:34:39;101971.73;;;19.72;59.54
59873;BME280;50750;51.636;4.948;2023-05-21T06:37:06;101968.69;;;19.73;59.51
59873;BME280;50750;51.636;4.948;2023-05-21T06:39:33;101969.24;;;19.72;59.60
59873;BME280;50750;51.636;4.948;2023-05-21T06:41:59;101970.48;;;19.72;59.45
59873;BME280;50750;51.636;4.948;2023-05-21T06:44:26;101971.20;;;19.72;59.64
59873;BME280;50750;51.636;4.948;2023-05-21T06:46:54;101968.73;;;19.72;59.67
59873;BME280;50750;51.636;4.948;2023-05-21T06:49:20;101967.30;;;19.72;59.71
59873;BME280;50750;51.636;4.948;2023-05-21T06:51:47;101967.31;;;19.71;59.74
59873;BME280;50750;51.636;4.948;2023-05-21T06:54:13;101963.38;;;19.72;59.57
59873;BME280;50750;51.636;4.948;2023-05-21T06:56:40;101960.02;;;19.72;59.63
59873;BME280;50750;51.636;4.948;2023-05-21T06:59:06;101953.26;;;19.72;59.64
59873;BME280;50750;51.636;4.948;2023-05-21T07:01:33;101954.50;;;19.72;59.52
59873;BME280;50750;51.636;4.948;2023-05-21T07:04:01;101956.25;;;19.72;59.68
59873;BME280;50750;51.636;4.948;2023-05-21T07:06:28;101957.69;;;19.72;59.68
59873;BME280;50750;51.636;4.948;2023-05-21T07:08:54;101959.11;;;19.72;59.69
59873;BME280;50750;51.636;4.948;2023-05-21T07:11:23;101955.89;;;19.73;59.72
59873;BME280;50750;51.636;4.948;2023-05-21T07:13:56;101955.55;;;19.72;59.78
59873;BME280;50750;51.636;4.948;2023-05-21T07:16:23;101954.48;;;19.73;59.71
59873;BME280;50750;51.636;4.948;2023-05-21T07:18:50;101957.50;;;19.72;59.73
59873;BME280;50750;51.636;4.948;2023-05-21T07:21:16;101955.38;;;19.72;59.59
59873;BME280;50750;51.636;4.948;2023-05-21T07:23:43;101952.54;;;19.72;59.73
59873;BME280;50750;51.636;4.948;2023-05-21T07:26:10;101954.11;;;19.73;59.75
59873;BME280;50750;51.636;4.948;2023-05-21T07:28:37;101953.05;;;19.73;59.76
59873;BME280;50750;51.636;4.948;2023-05-21T07:31:03;101952.33;;;19.73;59.83
59873;BME280;50750;51.636;4.948;2023-05-21T07:33:30;101948.41;;;19.73;59.78
59873;BME280;50750;51.636;4.948;2023-05-21T07:35:56;101945.77;;;19.72;59.83
59873;BME280;50750;51.636;4.948;2023-05-21T07:38:23;101946.83;;;19.73;59.76
59873;BME280;50750;51.636;4.948;2023-05-21T07:40:50;101943.63;;;19.73;59.88
59873;BME280;50750;51.636;4.948;2023-05-21T07:43:17;101944.32;;;19.73;59.86
59873;BME280;50750;51.636;4.948;2023-05-21T07:45:43;101947.37;;;19.73;59.91
59873;BME280;50750;51.636;4.948;2023-05-21T07:48:09;101943.95;;;19.73;59.91
59873;BME280;50750;51.636;4.948;2023-05-21T07:50:37;101951.61;;;19.73;59.96
59873;BME280;50750;51.636;4.948;2023-05-21T07:53:03;101952.27;;;19.74;59.96
59873;BME280;50750;51.636;4.948;2023-05-21T07:55:30;101950.85;;;19.74;59.72
59873;BME280;50750;51.636;4.948;2023-05-21T07:57:56;101944.63;;;19.74;59.81
59873;BME280;50750;51.636;4.948;2023-05-21T08:00:23;101947.61;;;19.75;59.89
59873;BME280;50750;51.636;4.948;2023-05-21T08:02:50;101947.97;;;19.75;59.84
59873;BME280;50750;51.636;4.948;2023-05-21T08:05:17;101949.40;;;19.75;59.77
59873;BME280;50750;51.636;4.948;2023-05-21T08:07:44;101951.33;;;19.75;59.79
59873;BME280;50750;51.636;4.948;2023-05-21T08:10:11;101947.08;;;19.75;59.71
59873;BME280;50750;51.636;4.948;2023-05-21T08:12:38;101949.40;;;19.75;59.70
59873;BME280;50750;51.636;4.948;2023-05-21T08:15:04;101945.83;;;19.75;59.64
59873;BME280;50750;51.636;4.948;2023-05-21T08:17:31;101950.04;;;19.76;59.53
59873;BME280;50750;51.636;4.948;2023-05-21T08:19:58;101944.80;;;19.77;59.78
59873;BME280;50750;51.636;4.948;2023-05-21T08:22:24;101941.88;;;19.79;59.68
59873;BME280;50750;51.636;4.948;2023-05-21T08:24:51;101938.76;;;19.81;59.64
59873;BME280;50750;51.636;4.948;2023-05-21T08:27:17;101937.41;;;19.83;59.65
59873;BME280;50750;51.636;4.948;2023-05-21T08:29:47;101933.17;;;19.86;59.53
59873;BME280;50750;51.636;4.948;2023-05-21T08:32:13;101932.33;;;19.89;59.64
59873;BME280;50750;51.636;4.948;2023-05-21T08:34:40;101931.35;;;19.90;59.39
59873;BME280;50750;51.636;4.948;2023-05-21T08:37:06;101928.21;;;19.92;59.36
59873;BME280;50750;51.636;4.948;2023-05-21T08:39:33;101928.66;;;19.94;59.44
59873;BME280;50750;51.636;4.948;2023-05-21T08:45:04;101927.90;;;19.98;59.40
59873;BME280;50750;51.636;4.948;2023-05-21T08:47:34;101924.81;;;19.99;59.43
59873;BME280;50750;51.636;4.948;2023-05-21T08:50:08;101918.52;;;20.00;59.29
59873;BME280;50750;51.636;4.948;2023-05-21T08:52:35;101916.34;;;20.01;59.38
59873;BME280;50750;51.636;4.948;2023-05-21T08:55:05;101916.48;;;20.02;59.21
59873;BME280;50750;51.636;4.948;2023-05-21T08:57:33;101919.83;;;20.03;59.28
59873;BME280;50750;51.636;4.948;2023-05-21T09:00:00;101921.41;;;20.03;59.32
59873;BME280;50750;51.636;4.948;2023-05-21T09:02:28;101923.96;;;20.02;59.28
59873;BME280;50750;51.636;4.948;2023-05-21T09:05:03;101925.02;;;20.01;59.31
59873;BME280;50750;51.636;4.948;2023-05-21T09:07:30;101924.39;;;20.00;59.43
59873;BME280;50750;51.636;4.948;2023-05-21T09:10:05;101923.71;;;20.00;59.36
59873;BME280;50750;51.636;4.948;2023-05-21T09:12:34;101922.21;;;19.98;59.30
59873;BME280;50750;51.636;4.948;2023-05-21T09:15:02;101918.35;;;19.97;59.36
59873;BME280;50750;51.636;4.948;2023-05-21T09:17:29;101915.19;;;19.97;59.41
59873;BME280;50750;51.636;4.948;2023-05-21T09:20:14;101917.73;;;19.95;59.39
59873;BME280;50750;51.636;4.948;2023-05-21T09:22:43;101913.52;;;19.95;59.58
59873;BME280;50750;51.636;4.948;2023-05-21T09:25:12;101915.32;;;19.94;59.53
59873;BME280;50750;51.636;4.948;2023-05-21T09:27:38;101913.56;;;19.94;59.57
59873;BME280;50750;51.636;4.948;2023-05-21T09:30:10;101912.50;;;19.93;59.71
59873;BME280;50750;51.636;4.948;2023-05-21T09:32:38;101909.13;;;19.93;59.79
59873;BME280;50750;51.636;4.948;2023-05-21T09:35:06;101907.77;;;19.92;59.71
59873;BME280;50750;51.636;4.948;2023-05-21T09:37:41;101908.30;;;19.92;59.81
59873;BME280;50750;51.636;4.948;2023-05-21T09:40:15;101908.33;;;19.92;59.71
59873;BME280;50750;51.636;4.948;2023-05-21T09:45:11;101905.13;;;19.92;59.72
59873;BME280;50750;51.636;4.948;2023-05-21T09:47:42;101907.80;;;19.92;59.84
59873;BME280;50750;51.636;4.948;2023-05-21T09:50:10;101907.77;;;19.92;59.81
59873;BME280;50750;51.636;4.948;2023-05-21T09:52:37;101900.87;;;19.92;59.77
59873;BME280;50750;51.636;4.948;2023-05-21T09:55:05;101898.55;;;19.92;59.82
59873;BME280;50750;51.636;4.948;2023-05-21T09:57:39;101894.31;;;19.91;59.68
59873;BME280;50750;51.636;4.948;2023-05-21T10:00:08;101891.98;;;19.92;59.87
59873;BME280;50750;51.636;4.948;2023-05-21T10:02:46;101890.34;;;19.92;59.87
59873;BME280;50750;51.636;4.948;2023-05-21T10:05:14;101888.73;;;19.92;59.89
59873;BME280;50750;51.636;4.948;2023-05-21T10:07:51;101885.16;;;19.93;59.89
59873;BME280;50750;51.636;4.948;2023-05-21T10:10:22;101877.69;;;19.93;59.85
59873;BME280;50750;51.636;4.948;2023-05-21T10:12:54;101880.17;;;19.93;60.04
59873;BME280;50750;51.636;4.948;2023-05-21T10:15:23;101868.44;;;19.93;60.03
59873;BME280;50750;51.636;4.948;2023-05-21T10:17:51;101873.20;;;19.94;59.92
59873;BME280;50750;51.636;4.948;2023-05-21T10:20:19;101867.85;;;19.94;59.88
59873;BME280;50750;51.636;4.948;2023-05-21T10:22:46;101869.08;;;19.95;59.99
59873;BME280;50750;51.636;4.948;2023-05-21T10:25:13;101865.48;;;19.95;60.01
59873;BME280;50750;51.636;4.948;2023-05-21T10:27:40;101865.27;;;19.95;60.06
59873;BME280;50750;51.636;4.948;2023-05-21T10:30:08;101859.77;;;19.95;60.00
59873;BME280;50750;51.636;4.948;2023-05-21T10:32:35;101861.33;;;19.96;59.93
59873;BME280;50750;51.636;4.948;2023-05-21T10:35:01;101862.05;;;19.96;60.07
59873;BME280;50750;51.636;4.948;2023-05-21T10:37:28;101858.61;;;19.97;60.09
59873;BME280;50750;51.636;4.948;2023-05-21T10:39:56;101858.41;;;19.98;60.14
59873;BME280;50750;51.636;4.948;2023-05-21T10:45:28;101859.95;;;19.99;59.92
59873;BME280;50750;51.636;4.948;2023-05-21T10:48:05;101850.52;;;19.99;59.95
59873;BME280;50750;51.636;4.948;2023-05-21T11:01:51;101839.36;;;20.01;60.13
59873;BME280;50750;51.636;4.948;2023-05-21T11:04:28;101836.48;;;20.02;60.10
59873;BME280;50750;51.636;4.948;2023-05-21T11:06:54;101840.52;;;20.03;60.17
59873;BME280;50750;51.636;4.948;2023-05-21T11:09:23;101842.61;;;20.03;60.14
59873;BME280;50750;51.636;4.948;2023-05-21T11:11:50;101837.98;;;20.04;60.08
59873;BME280;50750;51.636;4.948;2023-05-21T11:14:32;101842.36;;;20.05;60.12
59873;BME280;50750;51.636;4.948;2023-05-21T11:19:40;101837.65;;;20.06;60.07
59873;BME280;50750;51.636;4.948;2023-05-21T11:22:27;101831.73;;;20.07;60.27
59873;BME280;50750;51.636;4.948;2023-05-21T11:25:01;101825.80;;;20.08;60.29
59873;BME280;50750;51.636;4.948;2023-05-21T11:29:58;101828.94;;;20.10;60.18
59873;BME280;50750;51.636;4.948;2023-05-21T11:32:24;101824.24;;;20.12;60.12
59873;BME280;50750;51.636;4.948;2023-05-21T11:34:51;101820.45;;;20.13;60.06
59873;BME280;50750;51.636;4.948;2023-05-21T11:39:52;101814.27;;;20.15;60.22
59873;BME280;50750;51.636;4.948;2023-05-21T11:42:49;101806.94;;;20.16;60.33
59873;BME280;50750;51.636;4.948;2023-05-21T11:45:18;101801.38;;;20.16;60.21
59873;BME280;50750;51.636;4.948;2023-05-21T11:47:46;101800.10;;;20.17;60.27
59873;BME280;50750;51.636;4.948;2023-05-21T11:50:15;101799.15;;;20.18;60.30
59873;BME280;50750;51.636;4.948;2023-05-21T11:52:44;101793.91;;;20.20;60.26
59873;BME280;50750;51.636;4.948;2023-05-21T11:55:12;101790.98;;;20.21;60.29
59873;BME280;50750;51.636;4.948;2023-05-21T11:57:41;101786.05;;;20.24;60.25
59873;BME280;50750;51.636;4.948;2023-05-21T12:00:14;101786.48;;;20.25;60.23
59873;BME280;50750;51.636;4.948;2023-05-21T12:02:45;101782.95;;;20.28;60.19
59873;BME280;50750;51.636;4.948;2023-05-21T12:05:12;101775.52;;;20.30;60.22
59873;BME280;50750;51.636;4.948;2023-05-21T12:07:39;101774.69;;;20.33;60.20
59873;BME280;50750;51.636;4.948;2023-05-21T12:10:06;101773.33;;;20.35;60.13
59873;BME280;50750;51.636;4.948;2023-05-21T12:12:33;101770.77;;;20.36;60.22
59873;BME280;50750;51.636;4.948;2023-05-21T12:15:00;101769.09;;;20.37;60.16
59873;BME280;50750;51.636;4.948;2023-05-21T12:17:27;101765.14;;;20.38;60.06
59873;BME280;50750;51.636;4.948;2023-05-21T12:19:54;101771.13;;;20.39;60.17
59873;BME280;50750;51.636;4.948;2023-05-21T12:22:23;101772.52;;;20.39;60.31
59873;BME280;50750;51.636;4.948;2023-05-21T12:24:50;101772.65;;;20.40;60.25
59873;BME280;50750;51.636;4.948;2023-05-21T12:27:20;101774.77;;;20.41;60.21
59873;BME280;50750;51.636;4.948;2023-05-21T12:29:50;101784.91;;;20.41;60.13
59873;BME280;50750;51.636;4.948;2023-05-21T12:32:19;101785.44;;;20.41;60.33
59873;BME280;50750;51.636;4.948;2023-05-21T12:34:51;101783.80;;;20.41;60.46
59873;BME280;50750;51.636;4.948;2023-05-21T12:37:23;101784.16;;;20.41;60.48
59873;BME280;50750;51.636;4.948;2023-05-21T12:39:52;101781.48;;;20.41;60.38
59873;BME280;50750;51.636;4.948;2023-05-21T12:42:24;101777.92;;;20.42;60.37
59873;BME280;50750;51.636;4.948;2023-05-21T12:44:52;101778.81;;;20.41;60.44
59873;BME280;50750;51.636;4.948;2023-05-21T12:47:22;101778.81;;;20.41;60.40
59873;BME280;50750;51.636;4.948;2023-05-21T12:49:53;101779.32;;;20.41;60.53
59873;BME280;50750;51.636;4.948;2023-05-21T12:52:21;101777.02;;;20.42;60.39
59873;BME280;50750;51.636;4.948;2023-05-21T12:54:52;101772.40;;;20.42;60.61
59873;BME280;50750;51.636;4.948;2023-05-21T12:57:24;101768.65;;;20.42;60.53
59873;BME280;50750;51.636;4.948;2023-05-21T12:59:53;101771.30;;;20.42;60.55
59873;BME280;50750;51.636;4.948;2023-05-21T13:02:32;101767.91;;;20.42;60.63
59873;BME280;50750;51.636;4.948;2023-05-21T13:07:27;101772.13;;;20.43;60.63
59873;BME280;50750;51.636;4.948;2023-05-21T13:09:56;101774.76;;;20.44;60.62
59873;BME280;50750;51.636;4.948;2023-05-21T13:12:25;101775.68;;;20.43;60.76
59873;BME280;50750;51.636;4.948;2023-05-21T13:14:54;101771.21;;;20.43;60.90
59873;BME280;50750;51.636;4.948;2023-05-21T13:17:22;101774.18;;;20.45;61.07
59873;BME280;50750;51.636;4.948;2023-05-21T13:25:15;101783.42;;;20.51;61.01
59873;BME280;50750;51.636;4.948;2023-05-21T13:27:43;101785.61;;;20.54;60.85
59873;BME280;50750;51.636;4.948;2023-05-21T13:30:10;101784.33;;;20.55;60.83
59873;BME280;50750;51.636;4.948;2023-05-21T13:32:38;101787.64;;;20.56;60.95
59873;BME280;50750;51.636;4.948;2023-05-21T13:35:05;101784.16;;;20.57;60.91